Time;durP1;ratioP1;P1;durP2;ratioP2;P2;SDS_P1;SDS_P2;PMS_P1;PMS_P2;Temp;Humidity;BMP_temperature;BMP_pressure;BME280_temperature;BME280_humidity;BME280_pressure;Samples;Min_cycle;Max_cycle;Signal;HPM_P1;HPM_P2
2024/01/02 00:00:44;;;;;;;10.95;2.13;;;8.00;99.90;;;;;;4140092;28;20046;-78
2024/01/02 00:02:45;;;;;;;13.45;2.22;;;8.00;99.90;;;;;;4138942;28;20034;-78
2024/01/02 00:04:45;;;;;;;14.15;2.63;;;8.00;99.90;;;;;;4141037;28;20058;-79
2024/01/02 00:06:49;;;;;;;9.43;2.30;;;8.00;99.90;;;;;;4141915;28;20507;-77
2024/01/02 00:08:49;;;;;;;7.30;2.10;;;8.00;99.90;;;;;;4137739;28;20540;-78
2024/01/02 00:10:50;;;;;;;11.50;2.33;;;8.00;99.90;;;;;;4141430;28;20034;-78
2024/01/02 00:12:51;;;;;;;12.57;2.47;;;8.00;99.90;;;;;;4137491;28;20042;-78
2024/01/02 00:14:52;;;;;;;7.55;2.03;;;8.00;99.90;;;;;;4155033;28;20045;-78
2024/01/02 00:16:53;;;;;;;6.00;1.73;;;8.00;99.90;;;;;;4131484;28;20035;-77
2024/01/02 00:18:53;;;;;;;8.23;1.80;;;8.00;99.90;;;;;;4143668;28;20095;-77
2024/01/02 00:20:54;;;;;;;10.93;2.30;;;8.00;99.90;;;;;;4135586;28;20117;-77
2024/01/02 00:22:54;;;;;;;7.38;1.92;;;8.00;99.90;;;;;;4138810;28;20038;-78
2024/01/02 00:24:55;;;;;;;9.98;2.28;;;8.00;99.90;;;;;;4134621;28;20049;-77
2024/01/02 00:26:55;;;;;;;10.40;2.00;;;8.00;99.90;;;;;;4135573;28;20516;-77
2024/01/02 00:28:56;;;;;;;8.95;1.95;;;8.00;99.90;;;;;;4136895;28;20636;-77
2024/01/02 00:30:57;;;;;;;10.20;2.22;;;8.10;99.90;;;;;;4136696;28;20089;-77
2024/01/02 00:32:58;;;;;;;4.05;1.30;;;8.10;99.90;;;;;;4135141;28;20030;-77
2024/01/02 00:34:58;;;;;;;9.45;2.22;;;8.10;99.90;;;;;;4137733;28;20133;-77
2024/01/02 00:36:59;;;;;;;8.35;1.83;;;8.10;99.90;;;;;;4134656;28;21310;-74
2024/01/02 00:39:00;;;;;;;7.97;1.85;;;8.10;99.90;;;;;;4137650;28;20057;-76
2024/01/02 00:41:01;;;;;;;6.93;1.30;;;8.10;99.90;;;;;;4135321;28;20480;-77
2024/01/02 00:43:02;;;;;;;9.00;1.83;;;8.10;99.90;;;;;;4140814;28;20045;-70
2024/01/02 00:45:05;;;;;;;4.20;1.75;;;8.10;99.90;;;;;;4132787;28;20057;-71
2024/01/02 00:47:07;;;;;;;;;;;8.10;99.90;;;;;;4136604;28;20037;-70
2024/01/02 00:49:08;;;;;;;6.07;1.63;;;8.10;99.90;;;;;;4139343;28;20267;-70
2024/01/02 00:51:08;;;;;;;5.68;1.80;;;8.10;99.90;;;;;;4135283;28;20133;-71
2024/01/02 00:53:09;;;;;;;4.55;1.33;;;8.00;99.90;;;;;;4138504;28;20595;-70
2024/01/02 00:55:10;;;;;;;6.28;1.83;;;8.00;99.90;;;;;;4132882;28;20050;-70
2024/01/02 00:57:11;;;;;;;7.85;1.95;;;8.00;99.90;;;;;;4139113;28;20034;-71
2024/01/02 00:59:13;;;;;;;7.15;1.70;;;8.00;99.90;;;;;;4138892;28;20426;-71
2024/01/02 01:01:14;;;;;;;5.93;1.70;;;8.00;99.90;;;;;;4133986;28;20042;-70
2024/01/02 01:03:14;;;;;;;6.10;1.60;;;8.00;99.90;;;;;;4137735;28;20045;-71
2024/01/02 01:05:15;;;;;;;6.32;1.52;;;8.10;99.90;;;;;;4137354;28;20046;-71
2024/01/02 01:07:17;;;;;;;6.45;1.55;;;8.00;99.90;;;;;;4135535;28;20034;-71
2024/01/02 01:09:18;;;;;;;7.72;1.55;;;8.10;99.90;;;;;;4135569;28;20069;-71
2024/01/02 01:11:20;;;;;;;5.13;1.60;;;8.00;99.90;;;;;;4133823;28;20038;-71
2024/01/02 01:13:20;;;;;;;5.10;1.73;;;8.10;99.90;;;;;;4134811;28;20070;-70
2024/01/02 01:15:21;;;;;;;4.95;1.55;;;8.00;99.90;;;;;;4137251;28;20041;-70
2024/01/02 01:17:21;;;;;;;4.85;1.52;;;8.00;99.90;;;;;;4152655;28;20592;-70
2024/01/02 01:19:22;;;;;;;3.92;1.60;;;8.00;99.90;;;;;;4139096;28;20042;-70
2024/01/02 01:21:22;;;;;;;5.75;1.73;;;8.00;99.90;;;;;;4133486;28;20030;-70
2024/01/02 01:23:23;;;;;;;4.05;1.40;;;8.00;99.90;;;;;;4137399;28;20109;-70
2024/01/02 01:25:24;;;;;;;6.30;1.45;;;8.00;99.90;;;;;;4138064;28;20045;-71
2024/01/02 01:27:24;;;;;;;4.10;1.30;;;8.00;99.90;;;;;;4137076;28;20605;-70
2024/01/02 01:29:25;;;;;;;4.88;1.58;;;8.00;99.90;;;;;;4144297;28;20072;-70
2024/01/02 01:31:25;;;;;;;9.60;1.70;;;8.00;99.90;;;;;;4139398;28;20088;-70
2024/01/02 01:33:26;;;;;;;6.35;1.52;;;8.00;99.90;;;;;;4140490;28;20544;-69
2024/01/02 01:35:26;;;;;;;3.60;1.52;;;8.00;99.90;;;;;;4137702;28;20093;-70
2024/01/02 01:37:27;;;;;;;5.18;1.60;;;8.00;99.90;;;;;;4140318;28;20042;-70
2024/01/02 01:39:27;;;;;;;4.82;1.77;;;8.00;99.90;;;;;;4141547;28;20037;-69
2024/01/02 01:41:28;;;;;;;5.22;1.25;;;8.00;99.90;;;;;;4143092;28;20065;-70
2024/01/02 01:43:29;;;;;;;5.63;1.70;;;8.00;99.90;;;;;;4140464;28;20494;-70
2024/01/02 01:45:30;;;;;;;6.55;1.55;;;8.00;99.90;;;;;;4143306;28;21581;-70
2024/01/02 01:47:31;;;;;;;3.55;1.10;;;8.00;99.90;;;;;;4133582;28;20064;-69
2024/01/02 01:49:31;;;;;;;4.50;1.60;;;7.90;99.90;;;;;;4140077;28;21271;-69
2024/01/02 01:51:34;;;;;;;4.15;1.42;;;8.00;99.90;;;;;;4144817;28;20370;-70
2024/01/02 01:53:35;;;;;;;7.00;1.52;;;7.90;99.90;;;;;;4137732;28;20490;-75
2024/01/02 01:55:36;;;;;;;4.85;1.60;;;8.00;99.90;;;;;;4140565;28;20164;-74
2024/01/02 01:57:36;;;;;;;6.15;1.60;;;7.90;99.90;;;;;;4142835;28;20137;-74
2024/01/02 01:59:37;;;;;;;5.68;1.30;;;7.90;99.90;;;;;;4135692;28;20049;-75
2024/01/02 02:01:45;;;;;;;7.57;1.33;;;7.90;99.90;;;;;;4141417;28;20120;-77
2024/01/02 02:03:45;;;;;;;5.50;1.48;;;7.90;99.90;;;;;;4139057;28;20073;-74
2024/01/02 02:05:46;;;;;;;3.65;1.65;;;7.90;99.90;;;;;;4136320;28;20521;-75
2024/01/02 02:07:46;;;;;;;7.35;1.60;;;7.90;99.90;;;;;;4139106;28;20046;-75
2024/01/02 02:09:47;;;;;;;3.97;1.33;;;7.80;99.90;;;;;;4142649;28;20549;-75
2024/01/02 02:11:48;;;;;;;2.90;1.30;;;7.90;99.90;;;;;;4134184;28;20125;-70
2024/01/02 02:13:49;;;;;;;8.18;1.58;;;7.90;99.90;;;;;;4136608;28;20050;-71
2024/01/02 02:15:50;;;;;;;3.92;1.38;;;7.90;99.90;;;;;;4132718;28;20082;-72
2024/01/02 02:17:50;;;;;;;3.65;1.30;;;7.90;99.90;;;;;;4142252;28;20045;-72
2024/01/02 02:19:51;;;;;;;6.03;1.45;;;7.90;99.90;;;;;;4139000;28;20043;-72
2024/01/02 02:21:53;;;;;;;3.60;1.13;;;7.90;99.90;;;;;;4137323;28;20049;-72
2024/01/02 02:23:54;;;;;;;5.22;1.33;;;7.90;99.90;;;;;;4138138;28;20375;-72
2024/01/02 02:25:54;;;;;;;2.17;0.90;;;7.90;99.90;;;;;;4141685;28;20048;-72
2024/01/02 02:27:55;;;;;;;3.72;1.23;;;7.90;99.90;;;;;;4154665;28;20029;-73
2024/01/02 02:29:55;;;;;;;3.00;0.90;;;7.90;99.90;;;;;;4132775;28;20088;-73
2024/01/02 02:31:56;;;;;;;3.20;1.05;;;7.90;99.90;;;;;;4141496;28;20168;-72
2024/01/02 02:33:56;;;;;;;2.45;0.73;;;7.90;99.90;;;;;;4141941;28;20042;-72
2024/01/02 02:35:58;;;;;;;4.25;0.90;;;7.90;99.90;;;;;;4137685;28;20038;-73
2024/01/02 02:37:58;;;;;;;3.75;1.20;;;7.90;99.90;;;;;;4136539;28;20037;-73
2024/01/02 02:39:59;;;;;;;2.20;0.80;;;8.00;99.90;;;;;;4142853;28;20060;-73
2024/01/02 02:41:59;;;;;;;3.03;1.00;;;8.00;99.90;;;;;;4136431;28;20044;-72
2024/01/02 02:44:00;;;;;;;1.88;0.77;;;7.90;99.90;;;;;;4137303;28;20387;-72
2024/01/02 02:46:01;;;;;;;4.25;1.00;;;7.90;99.90;;;;;;4134467;28;20510;-71
2024/01/02 02:48:01;;;;;;;1.50;0.68;;;8.00;99.90;;;;;;4136025;28;20144;-71
2024/01/02 02:50:04;;;;;;;2.70;0.82;;;8.00;99.90;;;;;;4137133;28;20049;-71
2024/01/02 02:52:05;;;;;;;1.10;0.68;;;8.00;99.90;;;;;;4132903;28;20030;-71
2024/01/02 02:54:05;;;;;;;2.15;0.70;;;8.00;99.90;;;;;;4135405;28;20049;-72
2024/01/02 02:56:06;;;;;;;1.20;0.52;;;8.00;99.90;;;;;;4140892;28;20038;-72
2024/01/02 02:58:07;;;;;;;1.67;0.75;;;8.00;99.90;;;;;;4135848;28;20148;-72
2024/01/02 03:00:09;;;;;;;1.50;0.60;;;8.00;99.90;;;;;;4134836;28;20044;-73
2024/01/02 03:02:09;;;;;;;0.93;0.40;;;8.00;99.90;;;;;;4138737;28;20093;-71
2024/01/02 03:04:10;;;;;;;1.05;0.52;;;8.00;99.90;;;;;;4133895;28;20495;-70
2024/01/02 03:06:11;;;;;;;4.03;0.50;;;8.00;99.90;;;;;;4136369;28;20455;-71
2024/01/02 03:08:11;;;;;;;4.97;0.82;;;8.00;99.90;;;;;;4136819;28;20537;-71
2024/01/02 03:10:14;;;;;;;1.20;0.15;;;8.00;99.90;;;;;;4134802;28;20053;-73
2024/01/02 03:12:14;;;;;;;1.85;0.50;;;8.00;99.90;;;;;;4138215;28;20030;-71
2024/01/02 03:14:15;;;;;;;1.30;0.45;;;8.00;99.90;;;;;;4138461;28;20438;-71
2024/01/02 03:16:16;;;;;;;2.08;0.30;;;8.00;99.90;;;;;;4133666;28;20038;-71
2024/01/02 03:18:16;;;;;;;1.83;0.68;;;8.00;99.90;;;;;;4137669;28;20034;-71
2024/01/02 03:20:17;;;;;;;2.25;0.50;;;8.00;99.90;;;;;;4139826;28;20125;-73
2024/01/02 03:22:17;;;;;;;0.85;0.30;;;8.00;99.90;;;;;;4140675;28;20034;-71
2024/01/02 03:24:18;;;;;;;0.75;0.40;;;8.00;99.90;;;;;;4139420;28;20046;-72
2024/01/02 03:26:19;;;;;;;0.70;0.30;;;7.90;99.90;;;;;;4138973;28;20030;-72
2024/01/02 03:28:19;;;;;;;0.43;0.20;;;8.00;99.90;;;;;;4141153;28;20042;-72
2024/01/02 03:30:20;;;;;;;1.35;0.47;;;7.90;99.90;;;;;;4132199;28;20371;-72
2024/01/02 03:32:20;;;;;;;1.35;0.30;;;7.90;99.90;;;;;;4140440;28;20049;-73
2024/01/02 03:34:21;;;;;;;0.75;0.20;;;7.90;99.90;;;;;;4138761;28;20056;-73
2024/01/02 03:36:22;;;;;;;0.35;0.30;;;7.90;99.90;;;;;;4137430;28;20073;-73
2024/01/02 03:38:23;;;;;;;0.80;0.25;;;7.90;99.90;;;;;;4141373;28;20117;-72
2024/01/02 03:40:23;;;;;;;1.85;0.43;;;7.90;99.90;;;;;;4139513;28;20046;-72
2024/01/02 03:42:24;;;;;;;1.10;0.30;;;7.90;99.90;;;;;;4140833;28;20516;-72
2024/01/02 03:44:24;;;;;;;1.25;0.45;;;7.90;99.90;;;;;;4140431;28;20505;-71
2024/01/02 03:46:25;;;;;;;0.45;0.10;;;7.80;99.90;;;;;;4140860;28;20081;-71
2024/01/02 03:48:25;;;;;;;0.63;0.20;;;7.80;99.90;;;;;;4141481;28;20072;-72
2024/01/02 03:50:26;;;;;;;1.38;0.35;;;7.80;99.90;;;;;;4141624;28;20034;-73
2024/01/02 03:52:27;;;;;;;0.98;0.28;;;7.80;99.90;;;;;;4135540;28;20084;-72
2024/01/02 03:54:27;;;;;;;1.52;0.47;;;7.80;99.90;;;;;;4141640;28;20042;-71
2024/01/02 03:56:28;;;;;;;4.43;0.50;;;7.80;99.90;;;;;;4133697;28;20069;-72
2024/01/02 03:58:30;;;;;;;0.95;0.30;;;7.80;99.90;;;;;;4132763;28;20394;-74
2024/01/02 04:00:33;;;;;;;0.63;0.20;;;7.80;99.90;;;;;;4141678;28;20034;-72
2024/01/02 04:02:33;;;;;;;1.38;0.32;;;7.70;99.90;;;;;;4138215;28;20068;-72
2024/01/02 04:04:38;;;;;;;0.75;0.10;;;7.80;99.90;;;;;;4141813;28;20482;-73
2024/01/02 04:06:38;;;;;;;0.63;0.20;;;7.80;99.90;;;;;;4137568;28;20485;-72
2024/01/02 04:08:39;;;;;;;0.88;0.40;;;7.80;99.90;;;;;;4139834;28;20042;-72
2024/01/02 04:10:40;;;;;;;0.82;0.20;;;7.80;99.90;;;;;;4137691;28;20482;-72
2024/01/02 04:12:40;;;;;;;1.92;0.20;;;7.80;99.90;;;;;;4138737;28;20029;-73
2024/01/02 04:14:41;;;;;;;1.30;0.25;;;7.80;99.90;;;;;;4138151;28;20049;-71
2024/01/02 04:16:41;;;;;;;0.52;0.30;;;7.80;99.90;;;;;;4148323;28;20052;-72
2024/01/02 04:18:44;;;;;;;0.57;0.20;;;7.80;99.90;;;;;;4135528;28;20038;-73
2024/01/02 04:20:45;;;;;;;0.28;0.15;;;7.80;99.90;;;;;;4144674;28;20483;-72
2024/01/02 04:22:45;;;;;;;1.40;0.43;;;7.80;99.90;;;;;;4160058;28;20072;-73
2024/01/02 04:24:46;;;;;;;1.88;0.47;;;7.80;99.90;;;;;;4143859;28;20399;-73
2024/01/02 04:26:47;;;;;;;0.30;0.20;;;7.80;99.90;;;;;;4140425;28;20041;-73
2024/01/02 04:28:47;;;;;;;0.85;0.20;;;7.80;99.90;;;;;;4138216;28;20069;-73
2024/01/02 04:30:48;;;;;;;0.82;0.28;;;7.80;99.90;;;;;;4139253;28;20041;-73
2024/01/02 04:32:48;;;;;;;0.40;0.28;;;7.80;99.90;;;;;;4139663;28;20072;-70
2024/01/02 04:34:49;;;;;;;0.73;0.28;;;7.80;99.90;;;;;;4138164;28;20034;-69
2024/01/02 04:36:50;;;;;;;1.80;0.30;;;7.80;99.90;;;;;;4140355;28;20056;-68
2024/01/02 04:38:51;;;;;;;0.40;0.10;;;7.80;99.90;;;;;;4140770;28;20092;-69
2024/01/02 04:40:51;;;;;;;0.10;0.10;;;7.80;99.90;;;;;;4140515;28;20113;-68
2024/01/02 04:42:52;;;;;;;0.47;0.00;;;7.80;99.90;;;;;;4143234;28;20038;-70
2024/01/02 04:44:52;;;;;;;0.45;0.30;;;7.90;99.90;;;;;;4142496;28;20041;-70
2024/01/02 04:46:53;;;;;;;0.45;0.25;;;7.80;99.90;;;;;;4142711;28;20030;-70
2024/01/02 04:48:54;;;;;;;1.98;0.40;;;7.90;99.90;;;;;;4139230;28;20050;-70
2024/01/02 04:50:55;;;;;;;0.60;0.05;;;7.80;99.90;;;;;;4141413;28;20037;-71
2024/01/02 04:52:55;;;;;;;1.70;0.60;;;7.90;99.90;;;;;;4140269;28;20025;-70
2024/01/02 04:54:57;;;;;;;3.05;0.80;;;7.90;99.90;;;;;;4139186;28;20639;-70
2024/01/02 04:56:58;;;;;;;1.13;0.63;;;7.90;99.90;;;;;;4137177;28;20056;-71
2024/01/02 04:58:58;;;;;;;2.70;0.60;;;7.90;99.90;;;;;;4137980;28;20096;-70
2024/01/02 05:00:59;;;;;;;0.45;0.20;;;8.00;99.90;;;;;;4140306;28;20037;-70
2024/01/02 05:03:00;;;;;;;0.20;0.10;;;8.00;99.90;;;;;;4140084;28;20038;-70
2024/01/02 05:05:01;;;;;;;1.23;0.32;;;8.00;99.90;;;;;;4138037;28;20112;-69
2024/01/02 05:07:02;;;;;;;0.60;0.20;;;8.00;99.90;;;;;;4140337;28;20049;-70
2024/01/02 05:09:03;;;;;;;0.28;0.20;;;8.10;99.90;;;;;;4139894;28;20042;-70
2024/01/02 05:11:03;;;;;;;0.35;0.10;;;8.10;99.90;;;;;;4137526;28;20080;-70
2024/01/02 05:13:04;;;;;;;0.15;0.15;;;8.10;99.90;;;;;;4140904;28;20041;-71
2024/01/02 05:15:05;;;;;;;0.52;0.10;;;8.20;99.90;;;;;;4137842;28;20082;-70
2024/01/02 05:17:09;;;;;;;0.32;0.10;;;8.20;99.90;;;;;;4139029;28;20057;-71
2024/01/02 05:19:10;;;;;;;0.20;0.17;;;8.20;99.90;;;;;;4138637;28;20041;-70
2024/01/02 05:21:10;;;;;;;0.40;0.20;;;8.20;99.90;;;;;;4136699;28;21007;-69
2024/01/02 05:23:14;;;;;;;0.20;0.20;;;8.20;99.90;;;;;;4135462;28;20060;-71
2024/01/02 05:25:15;;;;;;;0.75;0.30;;;8.30;99.90;;;;;;4138660;28;20400;-71
2024/01/02 05:27:15;;;;;;;1.85;0.50;;;8.30;99.90;;;;;;4133835;28;20046;-70
2024/01/02 05:29:37;;;;;;;0.35;0.30;;;8.30;99.90;;;;;;4120172;28;20048;-70
2024/01/02 05:31:38;;;;;;;0.15;0.15;;;8.40;99.90;;;;;;4132937;28;20045;-70
2024/01/02 05:33:39;;;;;;;0.50;0.20;;;8.40;99.90;;;;;;4133976;28;20064;-71
2024/01/02 05:35:39;;;;;;;0.40;0.20;;;8.50;99.90;;;;;;4110976;28;20480;-70
2024/01/02 05:37:40;;;;;;;1.73;0.38;;;8.50;99.90;;;;;;4133907;28;20117;-70
2024/01/02 05:39:40;;;;;;;0.13;0.13;;;8.50;99.90;;;;;;4136428;28;20388;-71
2024/01/02 05:41:41;;;;;;;0.30;0.13;;;8.60;99.90;;;;;;4141121;28;20116;-74
2024/01/02 05:43:42;;;;;;;1.85;0.32;;;8.60;99.90;;;;;;4143547;28;20096;-74
2024/01/02 05:45:42;;;;;;;0.32;0.15;;;8.70;99.90;;;;;;4136471;28;20494;-74
2024/01/02 05:47:44;;;;;;;0.65;0.20;;;8.70;99.90;;;;;;4139321;28;20049;-74
2024/01/02 05:49:45;;;;;;;0.25;0.17;;;8.80;99.90;;;;;;4136852;28;20494;-74
2024/01/02 05:51:45;;;;;;;0.20;0.13;;;8.90;99.90;;;;;;4136905;28;20050;-75
2024/01/02 05:53:46;;;;;;;0.13;0.13;;;8.90;99.90;;;;;;4137768;28;20090;-73
2024/01/02 05:55:46;;;;;;;0.10;0.10;;;9.00;99.90;;;;;;4135805;28;20132;-74
2024/01/02 05:57:47;;;;;;;0.10;0.10;;;9.10;99.90;;;;;;4133002;28;20033;-74
2024/01/02 05:59:47;;;;;;;0.25;0.10;;;9.10;99.90;;;;;;4133112;28;20038;-74
2024/01/02 06:01:48;;;;;;;0.20;0.10;;;9.20;99.90;;;;;;4138370;28;20073;-74
2024/01/02 06:03:49;;;;;;;0.22;0.10;;;9.30;99.90;;;;;;4140385;28;20502;-73
2024/01/02 06:05:49;;;;;;;0.00;0.00;;;9.30;99.90;;;;;;4135477;28;20479;-75
2024/01/02 06:07:50;;;;;;;0.00;0.00;;;9.50;99.90;;;;;;4133988;28;20053;-75
2024/01/02 06:09:50;;;;;;;0.20;0.10;;;9.50;99.90;;;;;;4156276;28;20037;-74
2024/01/02 06:11:51;;;;;;;0.10;0.00;;;9.60;99.90;;;;;;4142866;28;20045;-74
2024/01/02 06:13:52;;;;;;;1.88;0.20;;;9.60;99.90;;;;;;4141092;28;20050;-74
2024/01/02 06:15:52;;;;;;;0.30;0.20;;;9.60;99.90;;;;;;4139934;28;20041;-74
2024/01/02 06:17:53;;;;;;;0.20;0.10;;;9.70;99.90;;;;;;4141303;28;20041;-74
2024/01/02 06:19:54;;;;;;;0.00;0.00;;;9.80;99.90;;;;;;4134102;28;20121;-74
2024/01/02 06:21:54;;;;;;;0.10;0.10;;;9.90;99.90;;;;;;4140576;28;20037;-74
2024/01/02 06:23:55;;;;;;;0.05;0.05;;;9.90;99.90;;;;;;4141207;28;20512;-74
2024/01/02 06:25:55;;;;;;;0.20;0.10;;;9.90;99.90;;;;;;4137291;28;20038;-74
2024/01/02 06:27:56;;;;;;;4.65;0.10;;;9.90;99.90;;;;;;4141515;28;20042;-74
2024/01/02 06:29:56;;;;;;;0.10;0.10;;;10.00;99.90;;;;;;4141248;28;20034;-74
2024/01/02 06:31:57;;;;;;;0.08;0.08;;;10.10;99.90;;;;;;4135440;28;20125;-74
2024/01/02 06:33:58;;;;;;;0.10;0.10;;;10.10;99.90;;;;;;4139723;28;20044;-74
2024/01/02 06:35:58;;;;;;;0.10;0.10;;;10.10;99.90;;;;;;4134707;28;20042;-74
2024/01/02 06:37:59;;;;;;;0.10;0.10;;;10.20;99.90;;;;;;4133778;28;20042;-74
2024/01/02 06:39:59;;;;;;;0.10;0.10;;;10.20;99.90;;;;;;4139510;28;20053;-74
2024/01/02 06:42:00;;;;;;;0.30;0.10;;;10.20;99.90;;;;;;4143789;28;20034;-74
2024/01/02 06:44:00;;;;;;;0.43;0.13;;;10.30;99.90;;;;;;4141130;28;20050;-74
2024/01/02 06:46:02;;;;;;;0.10;0.10;;;10.30;99.90;;;;;;4136163;28;20049;-73
2024/01/02 06:48:03;;;;;;;0.10;0.00;;;10.40;99.90;;;;;;4143944;28;20383;-73
2024/01/02 06:50:05;;;;;;;0.03;0.03;;;10.40;99.90;;;;;;4140563;28;20040;-74
2024/01/02 06:52:06;;;;;;;0.80;0.10;;;10.50;99.90;;;;;;4142875;28;20030;-77
2024/01/02 06:54:06;;;;;;;0.20;0.10;;;10.50;99.90;;;;;;4137273;28;20034;-77
2024/01/02 06:56:07;;;;;;;0.20;0.10;;;10.50;99.90;;;;;;4139465;28;20128;-77
2024/01/02 06:58:08;;;;;;;0.10;0.10;;;10.60;99.90;;;;;;4135908;28;20097;-77
2024/01/02 07:00:10;;;;;;;0.90;0.40;;;10.50;99.90;;;;;;4133485;28;20042;-77
2024/01/02 07:02:11;;;;;;;0.22;0.10;;;10.60;99.90;;;;;;4138017;28;20034;-77
2024/01/02 07:04:12;;;;;;;0.00;0.00;;;10.60;99.90;;;;;;4141047;28;20034;-76
2024/01/02 07:06:13;;;;;;;0.35;0.10;;;10.70;99.90;;;;;;4141452;28;20044;-77
2024/01/02 07:08:13;;;;;;;0.10;0.10;;;10.70;99.90;;;;;;4137791;28;20065;-76
2024/01/02 07:10:14;;;;;;;0.20;0.10;;;10.70;99.90;;;;;;4140521;28;20034;-77
2024/01/02 07:12:14;;;;;;;2.30;0.70;;;10.70;99.90;;;;;;4140910;28;20049;-76
2024/01/02 07:14:15;;;;;;;0.30;0.30;;;10.80;99.90;;;;;;4137843;28;20065;-77
2024/01/02 07:16:15;;;;;;;0.55;0.20;;;10.80;99.90;;;;;;4131884;28;20030;-76
2024/01/02 07:18:16;;;;;;;0.17;0.10;;;10.80;99.90;;;;;;4139874;28;20038;-77
2024/01/02 07:20:17;;;;;;;0.13;0.10;;;10.90;99.90;;;;;;4135927;28;20034;-77
2024/01/02 07:22:18;;;;;;;0.10;0.10;;;10.90;99.90;;;;;;4140175;28;20044;-77
2024/01/02 07:24:18;;;;;;;0.43;0.10;;;10.90;99.90;;;;;;4141015;28;20115;-77
2024/01/02 07:26:19;;;;;;;0.30;0.00;;;10.90;99.90;;;;;;4139814;28;20050;-77
2024/01/02 07:28:19;;;;;;;0.32;0.10;;;11.00;99.90;;;;;;4135322;28;20122;-76
2024/01/02 07:30:20;;;;;;;0.15;0.10;;;10.90;99.90;;;;;;4141361;28;20425;-77
2024/01/02 07:32:21;;;;;;;0.32;0.10;;;11.00;99.90;;;;;;4137784;28;20042;-77
2024/01/02 07:34:21;;;;;;;0.50;0.15;;;11.00;99.90;;;;;;4134492;28;20041;-78
2024/01/02 07:36:22;;;;;;;0.10;0.10;;;11.10;99.90;;;;;;4134017;28;20049;-77
2024/01/02 07:38:26;;;;;;;0.47;0.20;;;11.10;99.90;;;;;;4134302;28;20050;-77
2024/01/02 07:40:26;;;;;;;0.30;0.10;;;11.00;99.90;;;;;;4135214;28;20050;-77
2024/01/02 07:42:27;;;;;;;0.30;0.20;;;11.10;99.90;;;;;;4134129;28;20026;-77
2024/01/02 07:44:27;;;;;;;0.10;0.10;;;11.10;99.90;;;;;;4134109;28;20038;-77
2024/01/02 07:46:28;;;;;;;1.55;0.28;;;11.10;99.90;;;;;;4133514;28;20386;-77
2024/01/02 07:48:28;;;;;;;0.20;0.20;;;11.10;99.90;;;;;;4138864;28;20111;-77
2024/01/02 07:50:29;;;;;;;0.43;0.15;;;11.10;99.90;;;;;;4132005;28;20035;-78
2024/01/02 07:52:30;;;;;;;0.32;0.10;;;11.20;99.90;;;;;;4138297;28;20156;-77
2024/01/02 07:54:36;;;;;;;0.95;0.20;;;11.20;99.90;;;;;;4141570;28;20482;-77
2024/01/02 07:56:37;;;;;;;0.68;0.22;;;11.20;99.90;;;;;;4138011;28;20492;-77
2024/01/02 07:58:37;;;;;;;0.50;0.20;;;11.20;99.90;;;;;;4138347;28;20038;-78
2024/01/02 08:00:38;;;;;;;2.28;0.35;;;11.20;99.90;;;;;;4142235;28;20398;-77
2024/01/02 08:02:38;;;;;;;0.85;0.40;;;11.20;99.90;;;;;;4141778;28;20045;-71
2024/01/02 08:04:39;;;;;;;0.20;0.10;;;11.30;99.90;;;;;;4139159;28;20046;-72
2024/01/02 08:06:40;;;;;;;0.30;0.20;;;11.30;99.90;;;;;;4136671;28;20813;-72
2024/01/02 08:08:40;;;;;;;0.75;0.30;;;11.30;99.90;;;;;;4135795;28;20557;-70
2024/01/02 08:10:41;;;;;;;0.30;0.20;;;11.30;99.90;;;;;;4135838;28;20398;-71
2024/01/02 08:12:41;;;;;;;0.30;0.22;;;11.30;99.90;;;;;;4133673;28;20087;-71
2024/01/02 08:14:42;;;;;;;1.55;0.40;;;11.30;99.90;;;;;;4134915;28;20537;-71
2024/01/02 08:16:43;;;;;;;0.20;0.20;;;11.30;99.90;;;;;;4130415;28;20040;-72
2024/01/02 08:18:43;;;;;;;0.52;0.32;;;11.40;99.90;;;;;;4132133;28;20038;-71
2024/01/02 08:20:44;;;;;;;0.50;0.22;;;11.40;99.90;;;;;;4138069;28;20056;-71
2024/01/02 08:22:45;;;;;;;0.20;0.20;;;11.40;99.90;;;;;;4139379;28;20391;-70
2024/01/02 08:24:45;;;;;;;0.47;0.30;;;11.40;99.90;;;;;;4127144;28;20034;-72
2024/01/02 08:26:46;;;;;;;0.70;0.35;;;11.40;99.90;;;;;;4137656;28;20063;-71
2024/01/02 08:28:46;;;;;;;0.60;0.10;;;11.40;99.90;;;;;;4137637;28;20041;-71
2024/01/02 08:30:47;;;;;;;0.38;0.20;;;11.40;99.90;;;;;;4129426;28;20057;-71
2024/01/02 08:32:48;;;;;;;0.30;0.20;;;11.40;99.90;;;;;;4138687;28;20048;-71
2024/01/02 08:34:49;;;;;;;2.13;0.70;;;11.40;99.90;;;;;;4133102;28;20493;-71
2024/01/02 08:36:50;;;;;;;0.80;0.65;;;11.40;99.90;;;;;;4138028;28;20041;-71
2024/01/02 08:38:50;;;;;;;0.38;0.30;;;11.50;99.90;;;;;;4137198;28;20072;-71
2024/01/02 08:40:51;;;;;;;0.63;0.40;;;11.50;99.90;;;;;;4133736;28;20368;-71
2024/01/02 08:42:53;;;;;;;0.50;0.30;;;11.50;99.90;;;;;;4132114;28;20038;-71
2024/01/02 08:44:53;;;;;;;0.30;0.30;;;11.50;99.90;;;;;;4138098;28;20038;-71
2024/01/02 08:46:54;;;;;;;0.70;0.20;;;11.50;99.90;;;;;;4131510;28;20038;-71
2024/01/02 08:48:54;;;;;;;0.52;0.25;;;11.50;99.90;;;;;;4134352;28;20061;-71
2024/01/02 08:50:55;;;;;;;0.10;0.10;;;11.50;99.90;;;;;;4133905;28;20041;-71
2024/01/02 08:52:58;;;;;;;0.10;0.10;;;11.50;99.90;;;;;;4141135;28;20030;-72
2024/01/02 08:54:59;;;;;;;0.52;0.10;;;11.50;99.90;;;;;;4134877;28;20121;-72
2024/01/02 08:57:01;;;;;;;0.60;0.22;;;11.50;99.90;;;;;;4133966;28;20046;-71
2024/01/02 08:59:02;;;;;;;0.15;0.10;;;11.60;99.90;;;;;;4135982;28;20493;-71
2024/01/02 09:01:03;;;;;;;1.27;0.43;;;11.60;99.90;;;;;;4132793;28;20058;-72
2024/01/02 09:03:04;;;;;;;0.10;0.10;;;11.60;99.90;;;;;;4137914;28;20076;-72
2024/01/02 09:05:05;;;;;;;0.17;0.17;;;11.60;99.90;;;;;;4133414;28;20037;-72
2024/01/02 09:07:06;;;;;;;0.20;0.20;;;11.60;99.90;;;;;;4136626;28;20038;-72
2024/01/02 09:09:07;;;;;;;0.47;0.20;;;11.70;99.90;;;;;;4140060;28;20038;-72
2024/01/02 09:11:10;;;;;;;0.20;0.20;;;11.60;99.90;;;;;;4138565;28;20517;-72
2024/01/02 09:13:11;;;;;;;0.10;0.10;;;11.70;99.90;;;;;;4134245;28;20093;-63
2024/01/02 09:15:12;;;;;;;0.17;0.17;;;11.70;99.90;;;;;;4133828;28;20450;-65
2024/01/02 09:17:13;;;;;;;0.20;0.20;;;11.70;99.90;;;;;;4135488;28;20042;-65
2024/01/02 09:19:13;;;;;;;0.20;0.20;;;11.70;99.90;;;;;;4137368;28;20153;-65
2024/01/02 09:21:14;;;;;;;1.02;0.40;;;11.70;99.90;;;;;;4138287;28;20105;-64
2024/01/02 09:23:15;;;;;;;0.32;0.30;;;11.80;99.90;;;;;;4140088;28;20068;-65
2024/01/02 09:25:16;;;;;;;0.35;0.30;;;11.80;99.90;;;;;;4131094;28;20478;-64
2024/01/02 09:27:19;;;;;;;0.30;0.30;;;11.80;99.90;;;;;;4132170;28;20038;-64
2024/01/02 09:29:23;;;;;;;0.20;0.20;;;11.80;99.90;;;;;;4134876;28;20050;-64
2024/01/02 09:31:26;;;;;;;2.15;0.30;;;11.80;99.90;;;;;;4137452;28;20517;-64
2024/01/02 09:33:27;;;;;;;0.73;0.30;;;11.80;99.90;;;;;;4139778;28;20037;-63
2024/01/02 09:35:27;;;;;;;0.20;0.20;;;11.80;99.90;;;;;;4130120;28;20038;-64
2024/01/02 09:37:28;;;;;;;0.40;0.28;;;11.80;99.90;;;;;;4136886;28;20036;-64
2024/01/02 09:39:29;;;;;;;0.20;0.20;;;11.80;99.90;;;;;;4139039;28;20030;-64
2024/01/02 09:42:04;;;;;;;0.20;0.20;;;11.90;99.90;;;;;;4135071;28;20121;-64
2024/01/02 09:44:32;;;;;;;0.30;0.10;;;11.80;99.90;;;;;;4137129;28;20422;-64
2024/01/02 09:46:43;;;;;;;0.20;0.20;;;11.90;99.90;;;;;;4141941;28;20025;-64
2024/01/02 09:49:10;;;;;;;0.57;0.20;;;11.90;99.90;;;;;;4144357;28;20474;-67
2024/01/02 09:51:25;;;;;;;0.38;0.20;;;11.90;99.90;;;;;;4138339;28;20426;-64
2024/01/02 09:54:04;;;;;;;2.00;0.20;;;11.90;99.90;;;;;;4144639;28;20034;-64
2024/01/02 09:56:19;;;;;;;1.00;0.32;;;11.90;99.90;;;;;;4133785;28;20478;-63
2024/01/02 09:58:47;;;;;;;0.10;0.10;;;11.90;99.90;;;;;;4145135;28;20466;-64
2024/01/02 10:01:15;;;;;;;0.08;0.08;;;11.90;99.90;;;;;;4136519;28;20073;-64
2024/01/02 10:03:15;;;;;;;0.52;0.40;;;11.90;99.90;;;;;;4139296;28;20034;-64
2024/01/02 10:05:26;;;;;;;0.30;0.30;;;11.90;99.90;;;;;;4133103;28;20087;-64
2024/01/02 10:07:58;;;;;;;0.25;0.25;;;11.90;99.90;;;;;;4141241;28;20026;-63
2024/01/02 10:10:12;;;;;;;0.10;0.10;;;11.90;99.90;;;;;;4137415;28;20026;-64
2024/01/02 10:12:27;;;;;;;0.47;0.40;;;11.90;99.90;;;;;;4136365;28;21263;-63
2024/01/02 10:14:33;;;;;;;0.20;0.20;;;11.90;99.90;;;;;;4143857;28;20506;-63
2024/01/02 10:16:46;;;;;;;0.40;0.28;;;11.90;99.90;;;;;;4144355;28;20034;-63
2024/01/02 10:19:00;;;;;;;0.30;0.30;;;11.90;99.90;;;;;;4140299;28;20482;-65
2024/01/02 10:21:34;;;;;;;0.25;0.22;;;11.90;99.90;;;;;;4141872;28;20026;-64
2024/01/02 10:24:11;;;;;;;1.20;0.30;;;11.90;99.90;;;;;;4150055;28;20034;-71
2024/01/02 10:26:12;;;;;;;0.45;0.28;;;11.90;99.90;;;;;;4138480;28;20025;-72
2024/01/02 10:28:23;;;;;;;1.30;0.32;;;11.90;99.90;;;;;;4144485;28;20390;-71
2024/01/02 10:30:31;;;;;;;0.20;0.20;;;11.90;99.90;;;;;;4143439;28;20037;-72
2024/01/02 10:32:50;;;;;;;0.45;0.30;;;11.90;99.90;;;;;;4143043;28;20049;-71
2024/01/02 10:35:04;;;;;;;0.77;0.50;;;11.90;99.90;;;;;;4140826;28;20038;-72
2024/01/02 10:37:06;;;;;;;1.83;0.30;;;11.90;99.90;;;;;;4139791;28;20030;-72
2024/01/02 10:39:45;;;;;;;0.50;0.30;;;11.90;99.90;;;;;;4141971;28;20125;-72
2024/01/02 10:42:13;;;;;;;0.32;0.10;;;11.90;99.90;;;;;;4143227;28;20062;-72